Logo AVAMET
Benvolgut visitant, si us plau, ingressa Recuperar contrasenya

Almenara

Dades diàries. Acumulats / Últims 30 dies disponibles

Data Temperatura (°C) Humitat rel. (%) Pressió rel. (hPa) Vent (km/h) Precipitació
Mínima Mitjana Màxima Amplitud
tèrmica
Mínima Mitjana Màxima Mínima Mitjana Màxima Predom. Mitjana Ràfega
màxima
Total
(mm)
Índex-n
Mínima Mitjana Màxima Mínima Mitjana Màxima n
0 a 1
P0 max
mm 5'
Dades mensuals acumulades fins l'últim dia disponible
01/2020 3,3 6,5 9,4 10,4 10,3 15,1 19,9 16,6 38 76 92 1.014 1.026 1.033   3,6 85,3 173,8
Dades anuals acumulades fins l'últim dia disponible
2020 3,3 6,5 9,4 10,4 10,3 15,1 19,9 16,6 38 76 92 1.014 1.026 1.033   3,6 85,3 173,8
Últims 30 dies disponibles
22-01-2020 9,4     12,1     14,8 5,4 72 82 92 1.017 1.018 1.020 SSO 5,5 33,8 7,0
21-01-2020 8,0     10,8     13,7 5,7 80 88 92 1.014 1.016 1.021 NNW 13,0 69,2 76,4 0,46 7,20
20-01-2020 5,7     7,1     10,3 4,6 50 79 88 1.019 1.020 1.022 NNW 21,2 85,3 50,2 0,42 3,60
19-01-2020 6,9     9,7     13,0 6,1 51 78 90 1.015 1.017 1.021 NNW 9,5 64,4 39,8 0,07 1,20
18-01-2020 8,9     12,9     18,2 9,3 48 60 70 1.018 1.024 1.031 WSW 2,1 30,6 0,0
17-01-2020 7,9     13,4     19,9 12,0 38 59 85 1.025 1.026 1.028 O 3,0 30,6 0,0
16-01-2020 7,3     11,9     17,6 10,3 52 71 82 1.025 1.027 1.029 SSE 1,0 16,1 0,0
15-01-2020 4,2     9,1     14,5 10,3 56 73 84 1.022 1.024 1.027 WNW 1,1 19,3 0,0
14-01-2020 3,3     8,4     13,8 10,5 48 68 83 1.020 1.022 1.023 WNW 1,1 14,5 0,0
13-01-2020 3,4     8,1     13,4 10,0 45 68 87 1.021 1.024 1.030 NW 1,4 14,5 0,0
12-01-2020 4,2     8,9     14,3 10,1 57 79 90 1.028 1.029 1.031 WNW 1,6 14,5 0,0
11-01-2020 7,0     10,7     15,6 8,6 40 61 76 1.028 1.030 1.032 SSE 1,1 19,3 0,0
10-01-2020 7,8     11,3     16,5 8,7 42 72 90 1.022 1.025 1.029 ESE 3,1 54,7 0,0
09-01-2020 6,7     10,7     15,4 8,7 63 81 91 1.024 1.027 1.030 WNW 2,3 17,7 0,0
08-01-2020 6,8     10,7     16,7 9,9 57 81 91 1.027 1.030 1.032 N 1,4 22,5 0,0
07-01-2020 5,9     9,9     15,9 10,0 59 81 92 1.028 1.030 1.032 WNW 1,8 16,1 0,0
06-01-2020 5,7     10,1     14,9 9,2 62 79 89 1.027 1.029 1.030 WNW 1,1 12,9 0,0
05-01-2020 6,1     10,7     16,3 10,2 47 70 85 1.026 1.028 1.030 NNE 1,6 14,5 0,0
04-01-2020 7,3     10,4     15,6 8,3 53 78 92 1.031 1.032 1.033 O 2,1 16,1 0,2
03-01-2020 5,8     9,4     13,7 7,9 88 91 92 1.030 1.030 1.033 WNW 1,6 14,5 0,0
02-01-2020 8,0     11,2     13,9 5,9 70 80 89 1.030 1.031 1.033 WNW 1,0 11,3 0,0
01-01-2020 6,1     10,2     14,0 7,9 79 87 92 1.030 1.031 1.033 WNW 2,4 16,1 0,2
31-12-2019 6,6     9,7     13,8 7,2 76 86 91 1.031 1.032 1.034 OSO 1,1 12,9 0,0
30-12-2019 7,9     11,2     14,5 6,6 80 83 88 1.031 1.032 1.034 WNW 0,6 11,3 0,0
29-12-2019 7,6     10,7     15,1 7,5 64 80 90 1.030 1.032 1.034 WNW 2,1 16,1 0,0
28-12-2019 6,2     10,2     14,4 8,2 68 80 90 1.029 1.030 1.032 WNW 2,1 14,5 0,0
27-12-2019 8,7     12,0     16,1 7,4 63 74 81 1.027 1.029 1.030 NW 2,3 14,5 0,0
26-12-2019 11,0     14,6     20,7 9,7 46 71 81 1.021 1.024 1.029 ESE 0,8 14,5 0,0
25-12-2019 11,5     14,6     20,8 9,3 49 74 88 1.022 1.023 1.025 NW 0,8 14,5 0,0
24-12-2019 12,4     16,9     23,1 10,7 47 62 76 1.024 1.025 1.027 ESE 1,3 22,5 0,0
Últims 13 mesos disponibles
01/2020 3,3 6,3 8,9 10,3 10,3 15,1 19,9 16,6 59 76 91 1.016 1.026 1.032 WNW 3,5 85,3 166,8
12/2019 6,2 10,9 17,1 14,2 13,4 18,2 25,3 19,1 48 70 90 1.000 1.018 1.032 NW 4,0 61,2 103,0
11/2019 7,2 12,2 20,0 16,1 15,7 20,4 29,4 22,2 40 53 76 997 1.009 1.017 W 5,7 49,9 3,0
10/2019 11,1 16,5 20,9 20,4 17,2 24,7 29,3 18,2 46 71 84 1.006 1.015 1.021 ESE 3,4 37,0 22,6
09/2019 15,5 20,4 23,3 23,9 21,7 27,2 32,2 16,7 52 72 84 1.009 1.017 1.024 ESE 4,7 62,8 127,0
08/2019 18,3 22,5 26,5 26,3 26,4 29,7 37,8 19,5 54 72 81 1.009 1.015 1.019 ESE 4,3 57,9 41,6
07/2019 21,1 22,8 25,6 26,7 27,7 30,1 33,6 12,5 50 66 78 1.004 1.013 1.020 ESE 4,9 51,5 17,0
06/2019 12,2 18,5 22,4 22,6 21,1 26,3 36,1 23,9 42 64 81 1.007 1.015 1.022 ESE 5,2 46,7 0,0
05/2019 10,3 14,8 17,9 18,5 18,3 22,1 30,2 19,9 49 68 84 1.004 1.015 1.024 SSE 5,2 53,1 16,6
04/2019 8,3 12,1 15,2 15,7 15,9 19,7 28,3 20,0 43 64 91 998 1.012 1.024 W 6,7 69,2 44,0
03/2019 7,3 10,2 15,5 14,7 13,2 19,3 26,3 19,0 41 60 81 1.010 1.022 1.029 ESE 4,3 48,3 19,8
02/2019 5,3 7,8 11,4 12,5 13,8 17,4 25,3 20,0 28 65 80 993 1.024 1.034 NW 3,9 72,4 0,0
01/2019 4,0 7,2 11,8 11,6 11,5 16,6 21,3 17,3 40 60 82 1.000 1.018 1.030 NW 3,7 66,0 0,6
Tots els anys disponibles
2019 4,0 14,7 26,5 18,6 11,5 22,7 37,8 33,8 28 65 91 993 1.016 1.034 ESE 4,7 72,4 395,2
2018 2,3 14,6 26,7 18,5 9,1 22,5 35,1 32,8 43 73 89 1.000 1.018 1.030 WNW 6,1 78,9 683,0
2017 1,2 14,2 27,1 18,3 9,7 22,4 34,3 33,1 6,4 78,7 331,4
2016 3,3 14,7 25,7 18,5 12,0 22,2 33,7 30,4 6,4 86,9 422,0
2015 2,4 14,5 26,4 18,5 9,0 22,5 41,9 39,5 6,3 82,1 593,6
2014 1,4 12,7 19,6 16,8 12,8 21,5 34,3 32,9 6,0 70,8 270,2
Temperatura (°C)
Humitat relativa (%)
Velocitat del vent i ràfega màxima (km/h)
Direcció del vent (°)
Pressió (hPa)
Precipitació (mm)
Nota sobre les dades: s'avisa a l'usuari de la provisionalitat i no oficialitat d'aquestes dades
Logo AVAMET blanc
Web allotjada a Sollutia
Llicència de Creative CommonsLa web d'AVAMET i els seus continguts estan subjectes a una llicència de
Reconeixement - No Comercial - Compartir igual
Últimes estacions: Xixona - Els Ameradors (Soci), Agres - El Tossal (Soci), Xàbia - Bevenguts (MeteoXàbia), Llíria (Aj. Soci/Inforatge), Orihuela - Lo Capitán, Cox & Guardamar del Segura - horta (Meteorihuela), l'Alcúdia - Carriona & el Real de Gandia (Inforatge), Benicàssim - les Vil·les (Soci),  l'Alfàs del Pi - l'Albir (Soci), - - -